sensor_id;sensor_type;location;lat;lon;timestamp;P1;durP1;ratioP1;P2;durP2;ratioP2
57856;SDS011;43683;48.650;9.290;2023-03-31T00:00:18;5.05;;;1.90;;
57856;SDS011;43683;48.650;9.290;2023-03-31T00:02:44;5.88;;;2.08;;
57856;SDS011;43683;48.650;9.290;2023-03-31T00:05:10;2.88;;;1.77;;
57856;SDS011;43683;48.650;9.290;2023-03-31T00:07:35;3.65;;;1.92;;
57856;SDS011;43683;48.650;9.290;2023-03-31T00:10:04;4.40;;;2.20;;
57856;SDS011;43683;48.650;9.290;2023-03-31T00:12:30;8.65;;;2.10;;
57856;SDS011;43683;48.650;9.290;2023-03-31T00:14:55;3.03;;;1.98;;
57856;SDS011;43683;48.650;9.290;2023-03-31T00:17:21;4.13;;;2.15;;
57856;SDS011;43683;48.650;9.290;2023-03-31T00:19:46;3.50;;;2.10;;
57856;SDS011;43683;48.650;9.290;2023-03-31T00:22:14;3.30;;;1.60;;
57856;SDS011;43683;48.650;9.290;2023-03-31T00:24:46;5.07;;;2.47;;
57856;SDS011;43683;48.650;9.290;2023-03-31T00:27:11;2.38;;;1.75;;
57856;SDS011;43683;48.650;9.290;2023-03-31T00:29:37;4.10;;;1.90;;
57856;SDS011;43683;48.650;9.290;2023-03-31T00:32:05;3.45;;;2.08;;
57856;SDS011;43683;48.650;9.290;2023-03-31T00:34:31;5.10;;;2.28;;
57856;SDS011;43683;48.650;9.290;2023-03-31T00:36:58;4.03;;;1.93;;
57856;SDS011;43683;48.650;9.290;2023-03-31T00:39:26;3.08;;;1.90;;
57856;SDS011;43683;48.650;9.290;2023-03-31T00:42:00;4.57;;;2.20;;
57856;SDS011;43683;48.650;9.290;2023-03-31T00:44:28;3.47;;;2.20;;
57856;SDS011;43683;48.650;9.290;2023-03-31T00:47:01;4.25;;;2.30;;
57856;SDS011;43683;48.650;9.290;2023-03-31T00:49:39;3.95;;;2.15;;
57856;SDS011;43683;48.650;9.290;2023-03-31T00:52:17;2.60;;;2.05;;
57856;SDS011;43683;48.650;9.290;2023-03-31T00:57:15;5.55;;;2.50;;
57856;SDS011;43683;48.650;9.290;2023-03-31T00:59:45;4.05;;;2.67;;
57856;SDS011;43683;48.650;9.290;2023-03-31T01:02:15;3.90;;;2.13;;
57856;SDS011;43683;48.650;9.290;2023-03-31T01:04:48;3.65;;;2.05;;
57856;SDS011;43683;48.650;9.290;2023-03-31T01:07:21;5.45;;;2.05;;
57856;SDS011;43683;48.650;9.290;2023-03-31T01:09:50;3.92;;;2.35;;
57856;SDS011;43683;48.650;9.290;2023-03-31T01:12:20;7.05;;;2.47;;
57856;SDS011;43683;48.650;9.290;2023-03-31T01:14:48;4.25;;;2.10;;
57856;SDS011;43683;48.650;9.290;2023-03-31T01:17:15;5.10;;;2.42;;
57856;SDS011;43683;48.650;9.290;2023-03-31T01:28:30;4.93;;;2.08;;
57856;SDS011;43683;48.650;9.290;2023-03-31T01:36:53;3.60;;;1.80;;
57856;SDS011;43683;48.650;9.290;2023-03-31T01:42:52;3.20;;;1.80;;
57856;SDS011;43683;48.650;9.290;2023-03-31T01:45:53;2.92;;;1.90;;
57856;SDS011;43683;48.650;9.290;2023-03-31T01:48:33;5.18;;;2.25;;
57856;SDS011;43683;48.650;9.290;2023-03-31T01:51:18;2.83;;;2.00;;
57856;SDS011;43683;48.650;9.290;2023-03-31T01:56:45;7.15;;;2.35;;
57856;SDS011;43683;48.650;9.290;2023-03-31T01:59:27;6.07;;;2.33;;
57856;SDS011;43683;48.650;9.290;2023-03-31T02:02:05;5.10;;;2.20;;
57856;SDS011;43683;48.650;9.290;2023-03-31T02:04:40;8.20;;;2.55;;
57856;SDS011;43683;48.650;9.290;2023-03-31T02:07:11;6.53;;;2.15;;
57856;SDS011;43683;48.650;9.290;2023-03-31T02:09:42;5.20;;;2.10;;
57856;SDS011;43683;48.650;9.290;2023-03-31T02:12:11;3.58;;;1.90;;
57856;SDS011;43683;48.650;9.290;2023-03-31T02:14:38;4.23;;;2.07;;
57856;SDS011;43683;48.650;9.290;2023-03-31T02:17:09;5.38;;;1.92;;
57856;SDS011;43683;48.650;9.290;2023-03-31T02:19:42;4.43;;;1.88;;
57856;SDS011;43683;48.650;9.290;2023-03-31T02:22:09;3.20;;;2.05;;
57856;SDS011;43683;48.650;9.290;2023-03-31T02:24:37;2.65;;;1.85;;
57856;SDS011;43683;48.650;9.290;2023-03-31T02:29:50;4.32;;;1.80;;
57856;SDS011;43683;48.650;9.290;2023-03-31T02:32:24;3.03;;;1.90;;
57856;SDS011;43683;48.650;9.290;2023-03-31T02:35:07;7.82;;;2.30;;
57856;SDS011;43683;48.650;9.290;2023-03-31T02:37:36;4.15;;;2.05;;
57856;SDS011;43683;48.650;9.290;2023-03-31T02:40:07;6.57;;;2.33;;
57856;SDS011;43683;48.650;9.290;2023-03-31T02:42:37;4.78;;;2.00;;
57856;SDS011;43683;48.650;9.290;2023-03-31T02:45:04;5.13;;;2.15;;
57856;SDS011;43683;48.650;9.290;2023-03-31T02:47:31;4.55;;;2.03;;
57856;SDS011;43683;48.650;9.290;2023-03-31T02:49:58;4.50;;;2.13;;
57856;SDS011;43683;48.650;9.290;2023-03-31T02:57:45;9.05;;;2.45;;
57856;SDS011;43683;48.650;9.290;2023-03-31T03:03:27;6.10;;;2.28;;
57856;SDS011;43683;48.650;9.290;2023-03-31T03:06:24;2.90;;;2.00;;
57856;SDS011;43683;48.650;9.290;2023-03-31T03:14:34;5.00;;;2.22;;
57856;SDS011;43683;48.650;9.290;2023-03-31T03:17:11;3.80;;;2.20;;
57856;SDS011;43683;48.650;9.290;2023-03-31T03:19:42;4.93;;;1.90;;
57856;SDS011;43683;48.650;9.290;2023-03-31T03:22:08;5.40;;;2.10;;
57856;SDS011;43683;48.650;9.290;2023-03-31T03:24:34;2.30;;;2.00;;
57856;SDS011;43683;48.650;9.290;2023-03-31T03:26:59;6.05;;;2.30;;
57856;SDS011;43683;48.650;9.290;2023-03-31T03:29:25;2.88;;;2.15;;
57856;SDS011;43683;48.650;9.290;2023-03-31T03:31:51;5.63;;;2.10;;
57856;SDS011;43683;48.650;9.290;2023-03-31T03:34:17;3.63;;;1.98;;
57856;SDS011;43683;48.650;9.290;2023-03-31T03:36:45;6.88;;;2.65;;
57856;SDS011;43683;48.650;9.290;2023-03-31T03:39:11;6.97;;;2.63;;
57856;SDS011;43683;48.650;9.290;2023-03-31T03:41:36;3.45;;;2.08;;
57856;SDS011;43683;48.650;9.290;2023-03-31T03:44:02;5.78;;;2.22;;
57856;SDS011;43683;48.650;9.290;2023-03-31T03:46:28;4.53;;;1.90;;
57856;SDS011;43683;48.650;9.290;2023-03-31T03:48:53;8.50;;;2.58;;
57856;SDS011;43683;48.650;9.290;2023-03-31T03:51:19;3.08;;;2.13;;
57856;SDS011;43683;48.650;9.290;2023-03-31T03:53:45;3.35;;;2.20;;
57856;SDS011;43683;48.650;9.290;2023-03-31T03:56:11;5.00;;;2.30;;
57856;SDS011;43683;48.650;9.290;2023-03-31T03:58:36;8.50;;;2.92;;
57856;SDS011;43683;48.650;9.290;2023-03-31T04:01:02;5.00;;;2.50;;
57856;SDS011;43683;48.650;9.290;2023-03-31T04:03:28;6.80;;;2.47;;
57856;SDS011;43683;48.650;9.290;2023-03-31T04:05:56;5.93;;;2.67;;
57856;SDS011;43683;48.650;9.290;2023-03-31T04:08:22;6.35;;;2.30;;
57856;SDS011;43683;48.650;9.290;2023-03-31T04:10:48;7.05;;;2.85;;
57856;SDS011;43683;48.650;9.290;2023-03-31T04:13:15;5.65;;;2.50;;
57856;SDS011;43683;48.650;9.290;2023-03-31T04:15:41;7.82;;;3.92;;
57856;SDS011;43683;48.650;9.290;2023-03-31T04:18:07;4.13;;;2.83;;
57856;SDS011;43683;48.650;9.290;2023-03-31T04:20:35;5.55;;;2.70;;
57856;SDS011;43683;48.650;9.290;2023-03-31T04:23:01;9.73;;;3.25;;
57856;SDS011;43683;48.650;9.290;2023-03-31T04:25:29;8.13;;;3.47;;
57856;SDS011;43683;48.650;9.290;2023-03-31T04:27:55;5.63;;;2.92;;
57856;SDS011;43683;48.650;9.290;2023-03-31T04:30:21;7.15;;;2.72;;
57856;SDS011;43683;48.650;9.290;2023-03-31T04:32:50;8.75;;;2.92;;
57856;SDS011;43683;48.650;9.290;2023-03-31T04:35:17;3.65;;;2.60;;
57856;SDS011;43683;48.650;9.290;2023-03-31T04:37:45;7.03;;;2.75;;
57856;SDS011;43683;48.650;9.290;2023-03-31T04:40:14;6.18;;;2.80;;
57856;SDS011;43683;48.650;9.290;2023-03-31T04:42:41;6.65;;;3.10;;
57856;SDS011;43683;48.650;9.290;2023-03-31T04:45:07;4.43;;;2.80;;
57856;SDS011;43683;48.650;9.290;2023-03-31T04:47:33;6.63;;;3.10;;
57856;SDS011;43683;48.650;9.290;2023-03-31T04:49:59;5.70;;;2.92;;
57856;SDS011;43683;48.650;9.290;2023-03-31T04:52:24;4.35;;;2.78;;
57856;SDS011;43683;48.650;9.290;2023-03-31T04:54:50;4.82;;;3.00;;
57856;SDS011;43683;48.650;9.290;2023-03-31T04:57:15;7.22;;;3.10;;
57856;SDS011;43683;48.650;9.290;2023-03-31T04:59:41;5.00;;;2.97;;
57856;SDS011;43683;48.650;9.290;2023-03-31T05:02:06;5.20;;;3.03;;
57856;SDS011;43683;48.650;9.290;2023-03-31T05:04:32;6.65;;;3.28;;
57856;SDS011;43683;48.650;9.290;2023-03-31T05:06:57;5.18;;;2.78;;
57856;SDS011;43683;48.650;9.290;2023-03-31T05:09:23;5.90;;;2.60;;
57856;SDS011;43683;48.650;9.290;2023-03-31T05:11:49;6.30;;;3.30;;
57856;SDS011;43683;48.650;9.290;2023-03-31T05:14:14;6.20;;;2.75;;
57856;SDS011;43683;48.650;9.290;2023-03-31T05:16:40;5.35;;;2.80;;
57856;SDS011;43683;48.650;9.290;2023-03-31T05:19:06;8.15;;;3.70;;
57856;SDS011;43683;48.650;9.290;2023-03-31T05:21:31;6.40;;;3.53;;
57856;SDS011;43683;48.650;9.290;2023-03-31T05:23:57;6.78;;;3.58;;
57856;SDS011;43683;48.650;9.290;2023-03-31T05:26:23;7.25;;;3.20;;
57856;SDS011;43683;48.650;9.290;2023-03-31T05:28:49;7.60;;;3.83;;
57856;SDS011;43683;48.650;9.290;2023-03-31T05:31:18;6.97;;;3.97;;
57856;SDS011;43683;48.650;9.290;2023-03-31T05:33:44;8.90;;;4.00;;
57856;SDS011;43683;48.650;9.290;2023-03-31T05:36:11;6.03;;;3.30;;
57856;SDS011;43683;48.650;9.290;2023-03-31T05:38:39;6.78;;;3.80;;
57856;SDS011;43683;48.650;9.290;2023-03-31T05:41:05;9.18;;;3.72;;
57856;SDS011;43683;48.650;9.290;2023-03-31T05:43:34;9.35;;;4.65;;
57856;SDS011;43683;48.650;9.290;2023-03-31T05:46:00;6.28;;;3.83;;
57856;SDS011;43683;48.650;9.290;2023-03-31T05:48:26;8.48;;;4.03;;
57856;SDS011;43683;48.650;9.290;2023-03-31T05:50:58;6.47;;;3.03;;
57856;SDS011;43683;48.650;9.290;2023-03-31T05:53:25;8.50;;;4.00;;
57856;SDS011;43683;48.650;9.290;2023-03-31T05:55:58;10.20;;;4.07;;
57856;SDS011;43683;48.650;9.290;2023-03-31T05:58:26;8.23;;;3.88;;
57856;SDS011;43683;48.650;9.290;2023-03-31T06:01:05;6.72;;;3.58;;
57856;SDS011;43683;48.650;9.290;2023-03-31T06:03:35;11.57;;;4.57;;
57856;SDS011;43683;48.650;9.290;2023-03-31T06:06:05;6.95;;;3.85;;
57856;SDS011;43683;48.650;9.290;2023-03-31T06:08:32;8.10;;;3.70;;
57856;SDS011;43683;48.650;9.290;2023-03-31T06:11:03;6.95;;;3.75;;
57856;SDS011;43683;48.650;9.290;2023-03-31T06:13:30;7.95;;;4.20;;
57856;SDS011;43683;48.650;9.290;2023-03-31T06:15:56;7.28;;;3.78;;
57856;SDS011;43683;48.650;9.290;2023-03-31T06:18:23;8.82;;;4.10;;
57856;SDS011;43683;48.650;9.290;2023-03-31T06:20:49;8.73;;;3.65;;
57856;SDS011;43683;48.650;9.290;2023-03-31T06:23:16;7.43;;;3.78;;
57856;SDS011;43683;48.650;9.290;2023-03-31T06:25:41;8.75;;;4.07;;
57856;SDS011;43683;48.650;9.290;2023-03-31T06:28:07;8.73;;;4.00;;
57856;SDS011;43683;48.650;9.290;2023-03-31T06:30:32;9.13;;;4.75;;
57856;SDS011;43683;48.650;9.290;2023-03-31T06:32:58;10.32;;;4.22;;
57856;SDS011;43683;48.650;9.290;2023-03-31T06:35:24;7.07;;;3.92;;
57856;SDS011;43683;48.650;9.290;2023-03-31T06:37:49;8.23;;;4.10;;
57856;SDS011;43683;48.650;9.290;2023-03-31T06:40:15;7.85;;;4.00;;
57856;SDS011;43683;48.650;9.290;2023-03-31T06:42:41;7.28;;;3.83;;
57856;SDS011;43683;48.650;9.290;2023-03-31T06:45:06;7.95;;;4.30;;
57856;SDS011;43683;48.650;9.290;2023-03-31T06:47:32;13.63;;;5.53;;
57856;SDS011;43683;48.650;9.290;2023-03-31T06:49:58;9.27;;;5.00;;
57856;SDS011;43683;48.650;9.290;2023-03-31T06:52:23;10.15;;;4.88;;
57856;SDS011;43683;48.650;9.290;2023-03-31T06:54:49;7.30;;;3.80;;
57856;SDS011;43683;48.650;9.290;2023-03-31T06:57:14;9.32;;;4.38;;
57856;SDS011;43683;48.650;9.290;2023-03-31T06:59:40;7.28;;;4.20;;
57856;SDS011;43683;48.650;9.290;2023-03-31T07:02:06;7.25;;;4.72;;
57856;SDS011;43683;48.650;9.290;2023-03-31T07:04:33;11.05;;;5.72;;
57856;SDS011;43683;48.650;9.290;2023-03-31T07:06:59;11.32;;;5.80;;
57856;SDS011;43683;48.650;9.290;2023-03-31T07:09:25;8.02;;;4.80;;
57856;SDS011;43683;48.650;9.290;2023-03-31T07:11:50;10.00;;;4.78;;
57856;SDS011;43683;48.650;9.290;2023-03-31T07:14:16;8.32;;;4.15;;
57856;SDS011;43683;48.650;9.290;2023-03-31T07:16:41;3.53;;;2.70;;
57856;SDS011;43683;48.650;9.290;2023-03-31T07:19:07;4.55;;;2.80;;
57856;SDS011;43683;48.650;9.290;2023-03-31T07:21:34;4.55;;;2.80;;
57856;SDS011;43683;48.650;9.290;2023-03-31T07:24:00;4.57;;;2.88;;
57856;SDS011;43683;48.650;9.290;2023-03-31T07:26:26;5.15;;;2.53;;
57856;SDS011;43683;48.650;9.290;2023-03-31T07:28:52;4.97;;;2.05;;
57856;SDS011;43683;48.650;9.290;2023-03-31T07:31:20;2.38;;;1.90;;
57856;SDS011;43683;48.650;9.290;2023-03-31T07:33:46;2.45;;;1.60;;
57856;SDS011;43683;48.650;9.290;2023-03-31T07:36:12;2.25;;;1.52;;
57856;SDS011;43683;48.650;9.290;2023-03-31T07:38:38;3.15;;;1.52;;
57856;SDS011;43683;48.650;9.290;2023-03-31T07:41:05;3.08;;;1.60;;
57856;SDS011;43683;48.650;9.290;2023-03-31T07:43:35;1.80;;;1.20;;
57856;SDS011;43683;48.650;9.290;2023-03-31T07:46:01;2.33;;;1.30;;
57856;SDS011;43683;48.650;9.290;2023-03-31T07:48:27;1.90;;;1.10;;
57856;SDS011;43683;48.650;9.290;2023-03-31T07:50:53;1.35;;;1.25;;
57856;SDS011;43683;48.650;9.290;2023-03-31T07:53:19;3.15;;;1.83;;
57856;SDS011;43683;48.650;9.290;2023-03-31T07:55:45;3.10;;;1.88;;
57856;SDS011;43683;48.650;9.290;2023-03-31T07:58:12;3.70;;;2.05;;
57856;SDS011;43683;48.650;9.290;2023-03-31T08:00:37;3.97;;;2.28;;
57856;SDS011;43683;48.650;9.290;2023-03-31T08:03:03;2.75;;;1.58;;
57856;SDS011;43683;48.650;9.290;2023-03-31T08:05:28;4.10;;;2.20;;
57856;SDS011;43683;48.650;9.290;2023-03-31T08:07:54;4.88;;;2.10;;
57856;SDS011;43683;48.650;9.290;2023-03-31T08:10:24;2.05;;;1.73;;
57856;SDS011;43683;48.650;9.290;2023-03-31T08:12:50;3.78;;;1.85;;
57856;SDS011;43683;48.650;9.290;2023-03-31T08:15:16;3.80;;;2.10;;
57856;SDS011;43683;48.650;9.290;2023-03-31T08:17:42;3.92;;;2.10;;
57856;SDS011;43683;48.650;9.290;2023-03-31T08:20:08;5.32;;;2.20;;
57856;SDS011;43683;48.650;9.290;2023-03-31T08:22:39;2.60;;;1.88;;
57856;SDS011;43683;48.650;9.290;2023-03-31T08:25:05;2.90;;;1.60;;
57856;SDS011;43683;48.650;9.290;2023-03-31T08:27:35;2.00;;;1.67;;
57856;SDS011;43683;48.650;9.290;2023-03-31T08:30:02;2.35;;;1.60;;
57856;SDS011;43683;48.650;9.290;2023-03-31T08:32:31;1.63;;;1.30;;
57856;SDS011;43683;48.650;9.290;2023-03-31T08:34:56;1.35;;;1.13;;
57856;SDS011;43683;48.650;9.290;2023-03-31T08:37:22;3.10;;;1.17;;
57856;SDS011;43683;48.650;9.290;2023-03-31T08:39:48;2.00;;;0.90;;
57856;SDS011;43683;48.650;9.290;2023-03-31T08:42:14;1.25;;;1.08;;
57856;SDS011;43683;48.650;9.290;2023-03-31T08:44:45;1.10;;;1.00;;
57856;SDS011;43683;48.650;9.290;2023-03-31T08:47:47;1.77;;;1.15;;
57856;SDS011;43683;48.650;9.290;2023-03-31T08:50:18;1.05;;;0.90;;
57856;SDS011;43683;48.650;9.290;2023-03-31T08:53:04;3.08;;;1.10;;
57856;SDS011;43683;48.650;9.290;2023-03-31T08:55:51;1.15;;;0.93;;
57856;SDS011;43683;48.650;9.290;2023-03-31T09:12:38;1.40;;;0.93;;
57856;SDS011;43683;48.650;9.290;2023-03-31T09:15:44;0.70;;;0.70;;
57856;SDS011;43683;48.650;9.290;2023-03-31T09:29:03;1.60;;;0.90;;
57856;SDS011;43683;48.650;9.290;2023-03-31T09:31:34;1.40;;;0.80;;
57856;SDS011;43683;48.650;9.290;2023-03-31T09:36:36;2.15;;;0.90;;
57856;SDS011;43683;48.650;9.290;2023-03-31T09:39:01;2.53;;;1.02;;
57856;SDS011;43683;48.650;9.290;2023-03-31T09:41:29;1.25;;;0.88;;
57856;SDS011;43683;48.650;9.290;2023-03-31T09:43:54;0.63;;;0.63;;
57856;SDS011;43683;48.650;9.290;2023-03-31T09:48:59;2.03;;;0.88;;
57856;SDS011;43683;48.650;9.290;2023-03-31T09:51:31;2.15;;;0.88;;
57856;SDS011;43683;48.650;9.290;2023-03-31T09:59:12;2.70;;;1.05;;
57856;SDS011;43683;48.650;9.290;2023-03-31T10:01:43;1.60;;;0.80;;
57856;SDS011;43683;48.650;9.290;2023-03-31T10:04:16;2.75;;;0.93;;
57856;SDS011;43683;48.650;9.290;2023-03-31T10:06:47;0.90;;;0.70;;
57856;SDS011;43683;48.650;9.290;2023-03-31T10:09:13;2.88;;;1.45;;
57856;SDS011;43683;48.650;9.290;2023-03-31T10:11:50;5.05;;;0.90;;
57856;SDS011;43683;48.650;9.290;2023-03-31T10:14:39;1.75;;;0.82;;
57856;SDS011;43683;48.650;9.290;2023-03-31T10:17:16;3.10;;;0.77;;
57856;SDS011;43683;48.650;9.290;2023-03-31T10:19:50;2.78;;;1.02;;
57856;SDS011;43683;48.650;9.290;2023-03-31T10:24:46;2.40;;;0.93;;
57856;SDS011;43683;48.650;9.290;2023-03-31T10:29:42;1.15;;;0.90;;
57856;SDS011;43683;48.650;9.290;2023-03-31T10:32:15;5.20;;;1.02;;
57856;SDS011;43683;48.650;9.290;2023-03-31T10:34:47;3.95;;;1.30;;
57856;SDS011;43683;48.650;9.290;2023-03-31T10:37:16;3.42;;;0.90;;
57856;SDS011;43683;48.650;9.290;2023-03-31T10:39:44;3.08;;;1.10;;
57856;SDS011;43683;48.650;9.290;2023-03-31T10:42:17;2.55;;;1.55;;
57856;SDS011;43683;48.650;9.290;2023-03-31T10:44:47;3.55;;;1.38;;
57856;SDS011;43683;48.650;9.290;2023-03-31T10:49:43;3.47;;;1.08;;
57856;SDS011;43683;48.650;9.290;2023-03-31T10:52:16;1.42;;;0.88;;
57856;SDS011;43683;48.650;9.290;2023-03-31T10:54:47;4.90;;;1.20;;
57856;SDS011;43683;48.650;9.290;2023-03-31T10:57:23;2.75;;;1.23;;
57856;SDS011;43683;48.650;9.290;2023-03-31T11:02:41;2.70;;;1.10;;
57856;SDS011;43683;48.650;9.290;2023-03-31T11:05:50;5.68;;;1.42;;
57856;SDS011;43683;48.650;9.290;2023-03-31T11:14:16;1.63;;;0.80;;
57856;SDS011;43683;48.650;9.290;2023-03-31T11:19:38;2.53;;;1.08;;
57856;SDS011;43683;48.650;9.290;2023-03-31T11:22:20;3.22;;;1.30;;
57856;SDS011;43683;48.650;9.290;2023-03-31T11:30:23;0.63;;;0.63;;
57856;SDS011;43683;48.650;9.290;2023-03-31T11:32:58;1.13;;;0.80;;
57856;SDS011;43683;48.650;9.290;2023-03-31T11:41:16;1.05;;;0.88;;
57856;SDS011;43683;48.650;9.290;2023-03-31T11:43:54;0.68;;;0.68;;
57856;SDS011;43683;48.650;9.290;2023-03-31T11:46:31;0.70;;;0.70;;
57856;SDS011;43683;48.650;9.290;2023-03-31T11:49:05;1.17;;;0.70;;
57856;SDS011;43683;48.650;9.290;2023-03-31T11:54:40;1.25;;;0.70;;
57856;SDS011;43683;48.650;9.290;2023-03-31T12:00:05;0.70;;;0.70;;
57856;SDS011;43683;48.650;9.290;2023-03-31T12:02:53;0.68;;;0.68;;
57856;SDS011;43683;48.650;9.290;2023-03-31T12:05:26;0.82;;;0.82;;
57856;SDS011;43683;48.650;9.290;2023-03-31T12:08:00;0.63;;;0.60;;
57856;SDS011;43683;48.650;9.290;2023-03-31T12:10:34;1.20;;;0.68;;
57856;SDS011;43683;48.650;9.290;2023-03-31T12:16:00;0.85;;;0.55;;
57856;SDS011;43683;48.650;9.290;2023-03-31T12:18:39;0.50;;;0.50;;
57856;SDS011;43683;48.650;9.290;2023-03-31T12:21:20;0.60;;;0.60;;
57856;SDS011;43683;48.650;9.290;2023-03-31T12:23:49;0.75;;;0.50;;
57856;SDS011;43683;48.650;9.290;2023-03-31T12:26:22;0.60;;;0.60;;
57856;SDS011;43683;48.650;9.290;2023-03-31T12:29:01;1.38;;;0.60;;
57856;SDS011;43683;48.650;9.290;2023-03-31T12:31:31;0.52;;;0.52;;
57856;SDS011;43683;48.650;9.290;2023-03-31T12:34:01;0.52;;;0.52;;
57856;SDS011;43683;48.650;9.290;2023-03-31T12:39:48;0.50;;;0.50;;
57856;SDS011;43683;48.650;9.290;2023-03-31T12:43:05;2.60;;;0.70;;
57856;SDS011;43683;48.650;9.290;2023-03-31T12:45:42;1.00;;;0.60;;
57856;SDS011;43683;48.650;9.290;2023-03-31T12:48:50;1.65;;;0.70;;
57856;SDS011;43683;48.650;9.290;2023-03-31T12:54:17;2.22;;;0.90;;
57856;SDS011;43683;48.650;9.290;2023-03-31T12:57:11;0.65;;;0.40;;
57856;SDS011;43683;48.650;9.290;2023-03-31T12:59:40;2.05;;;0.70;;
57856;SDS011;43683;48.650;9.290;2023-03-31T13:04:43;2.38;;;0.80;;
57856;SDS011;43683;48.650;9.290;2023-03-31T13:07:13;1.10;;;0.93;;
57856;SDS011;43683;48.650;9.290;2023-03-31T13:12:41;2.55;;;0.90;;
57856;SDS011;43683;48.650;9.290;2023-03-31T13:15:35;1.45;;;0.88;;
57856;SDS011;43683;48.650;9.290;2023-03-31T13:18:01;1.95;;;0.70;;
57856;SDS011;43683;48.650;9.290;2023-03-31T13:20:30;2.75;;;0.73;;
57856;SDS011;43683;48.650;9.290;2023-03-31T13:28:16;3.03;;;1.17;;
57856;SDS011;43683;48.650;9.290;2023-03-31T13:30:51;3.35;;;0.90;;
57856;SDS011;43683;48.650;9.290;2023-03-31T13:33:18;3.67;;;1.00;;
57856;SDS011;43683;48.650;9.290;2023-03-31T13:55:45;1.35;;;0.73;;
57856;SDS011;43683;48.650;9.290;2023-03-31T14:09:07;1.15;;;1.02;;
57856;SDS011;43683;48.650;9.290;2023-03-31T14:11:36;1.40;;;0.80;;
57856;SDS011;43683;48.650;9.290;2023-03-31T14:14:06;0.93;;;0.93;;
57856;SDS011;43683;48.650;9.290;2023-03-31T14:16:40;0.60;;;0.60;;
57856;SDS011;43683;48.650;9.290;2023-03-31T14:19:40;0.50;;;0.50;;
57856;SDS011;43683;48.650;9.290;2023-03-31T14:22:59;0.70;;;0.70;;
57856;SDS011;43683;48.650;9.290;2023-03-31T14:25:44;3.60;;;0.70;;
57856;SDS011;43683;48.650;9.290;2023-03-31T14:28:32;0.60;;;0.60;;
57856;SDS011;43683;48.650;9.290;2023-03-31T14:31:10;1.33;;;0.70;;
57856;SDS011;43683;48.650;9.290;2023-03-31T14:34:20;0.50;;;0.50;;
57856;SDS011;43683;48.650;9.290;2023-03-31T14:37:14;0.98;;;0.57;;
57856;SDS011;43683;48.650;9.290;2023-03-31T14:39:45;0.57;;;0.57;;
57856;SDS011;43683;48.650;9.290;2023-03-31T14:42:14;1.05;;;0.70;;
57856;SDS011;43683;48.650;9.290;2023-03-31T14:45:03;0.73;;;0.60;;
57856;SDS011;43683;48.650;9.290;2023-03-31T14:47:33;1.27;;;0.70;;
57856;SDS011;43683;48.650;9.290;2023-03-31T14:52:31;1.23;;;0.63;;
57856;SDS011;43683;48.650;9.290;2023-03-31T14:54:58;1.10;;;0.80;;
57856;SDS011;43683;48.650;9.290;2023-03-31T14:57:26;0.70;;;0.70;;
57856;SDS011;43683;48.650;9.290;2023-03-31T14:59:58;2.80;;;1.05;;
57856;SDS011;43683;48.650;9.290;2023-03-31T15:02:32;2.47;;;0.60;;
57856;SDS011;43683;48.650;9.290;2023-03-31T15:05:04;1.30;;;0.60;;
57856;SDS011;43683;48.650;9.290;2023-03-31T15:07:33;2.08;;;0.65;;
57856;SDS011;43683;48.650;9.290;2023-03-31T15:10:00;1.05;;;0.60;;
57856;SDS011;43683;48.650;9.290;2023-03-31T15:12:27;1.20;;;0.60;;
57856;SDS011;43683;48.650;9.290;2023-03-31T15:14:55;1.27;;;0.57;;
57856;SDS011;43683;48.650;9.290;2023-03-31T15:17:29;0.73;;;0.50;;
57856;SDS011;43683;48.650;9.290;2023-03-31T15:20:00;2.17;;;0.40;;
57856;SDS011;43683;48.650;9.290;2023-03-31T15:22:44;1.30;;;0.45;;
57856;SDS011;43683;48.650;9.290;2023-03-31T15:25:12;0.40;;;0.40;;
57856;SDS011;43683;48.650;9.290;2023-03-31T15:27:42;2.70;;;0.65;;
57856;SDS011;43683;48.650;9.290;2023-03-31T15:30:18;1.45;;;0.40;;
57856;SDS011;43683;48.650;9.290;2023-03-31T15:32:47;0.40;;;0.40;;
57856;SDS011;43683;48.650;9.290;2023-03-31T15:35:20;1.10;;;0.60;;
57856;SDS011;43683;48.650;9.290;2023-03-31T15:37:50;1.17;;;0.60;;
57856;SDS011;43683;48.650;9.290;2023-03-31T15:40:24;1.27;;;0.50;;
57856;SDS011;43683;48.650;9.290;2023-03-31T15:43:41;1.98;;;0.60;;
57856;SDS011;43683;48.650;9.290;2023-03-31T15:48:17;0.88;;;0.60;;
57856;SDS011;43683;48.650;9.290;2023-03-31T15:50:57;0.70;;;0.70;;
57856;SDS011;43683;48.650;9.290;2023-03-31T15:53:30;1.10;;;0.70;;
57856;SDS011;43683;48.650;9.290;2023-03-31T15:56:01;0.75;;;0.75;;
57856;SDS011;43683;48.650;9.290;2023-03-31T15:58:46;0.82;;;0.75;;
57856;SDS011;43683;48.650;9.290;2023-03-31T16:01:22;1.05;;;0.80;;
57856;SDS011;43683;48.650;9.290;2023-03-31T16:03:51;1.75;;;0.80;;
57856;SDS011;43683;48.650;9.290;2023-03-31T16:09:09;1.27;;;0.90;;
57856;SDS011;43683;48.650;9.290;2023-03-31T16:11:41;1.25;;;0.73;;
57856;SDS011;43683;48.650;9.290;2023-03-31T16:14:12;1.48;;;0.90;;
57856;SDS011;43683;48.650;9.290;2023-03-31T16:16:44;2.47;;;1.10;;
57856;SDS011;43683;48.650;9.290;2023-03-31T16:19:13;1.13;;;1.00;;
57856;SDS011;43683;48.650;9.290;2023-03-31T16:21:43;1.30;;;0.93;;
57856;SDS011;43683;48.650;9.290;2023-03-31T16:24:14;1.85;;;1.02;;
57856;SDS011;43683;48.650;9.290;2023-03-31T16:26:40;1.60;;;1.00;;
57856;SDS011;43683;48.650;9.290;2023-03-31T16:29:06;1.45;;;1.05;;
57856;SDS011;43683;48.650;9.290;2023-03-31T16:34:00;1.00;;;0.68;;
57856;SDS011;43683;48.650;9.290;2023-03-31T16:36:27;2.08;;;0.98;;
57856;SDS011;43683;48.650;9.290;2023-03-31T16:38:53;2.00;;;0.95;;
57856;SDS011;43683;48.650;9.290;2023-03-31T16:41:20;2.58;;;1.27;;
57856;SDS011;43683;48.650;9.290;2023-03-31T16:43:47;0.80;;;0.80;;
57856;SDS011;43683;48.650;9.290;2023-03-31T16:46:16;0.98;;;0.95;;
57856;SDS011;43683;48.650;9.290;2023-03-31T16:48:42;1.48;;;0.80;;
57856;SDS011;43683;48.650;9.290;2023-03-31T16:51:08;1.75;;;0.90;;
57856;SDS011;43683;48.650;9.290;2023-03-31T16:53:34;0.60;;;0.60;;
57856;SDS011;43683;48.650;9.290;2023-03-31T16:56:01;1.17;;;0.75;;
57856;SDS011;43683;48.650;9.290;2023-03-31T16:58:28;0.80;;;0.80;;
57856;SDS011;43683;48.650;9.290;2023-03-31T17:00:55;0.80;;;0.80;;
57856;SDS011;43683;48.650;9.290;2023-03-31T17:03:21;2.67;;;0.88;;
57856;SDS011;43683;48.650;9.290;2023-03-31T17:05:48;3.58;;;1.10;;
57856;SDS011;43683;48.650;9.290;2023-03-31T17:08:16;0.90;;;0.90;;
57856;SDS011;43683;48.650;9.290;2023-03-31T17:10:53;0.70;;;0.70;;
57856;SDS011;43683;48.650;9.290;2023-03-31T17:13:22;1.00;;;0.70;;
57856;SDS011;43683;48.650;9.290;2023-03-31T17:15:47;4.18;;;2.30;;
57856;SDS011;43683;48.650;9.290;2023-03-31T17:18:13;1.75;;;1.10;;
57856;SDS011;43683;48.650;9.290;2023-03-31T17:20:40;2.67;;;1.00;;
57856;SDS011;43683;48.650;9.290;2023-03-31T17:23:05;1.70;;;0.80;;
57856;SDS011;43683;48.650;9.290;2023-03-31T17:25:31;1.63;;;0.98;;
57856;SDS011;43683;48.650;9.290;2023-03-31T17:27:58;3.15;;;1.10;;
57856;SDS011;43683;48.650;9.290;2023-03-31T17:30:25;1.17;;;1.00;;
57856;SDS011;43683;48.650;9.290;2023-03-31T17:32:51;1.75;;;1.00;;
57856;SDS011;43683;48.650;9.290;2023-03-31T17:35:17;2.13;;;1.25;;
57856;SDS011;43683;48.650;9.290;2023-03-31T17:37:46;0.80;;;0.80;;
57856;SDS011;43683;48.650;9.290;2023-03-31T17:40:17;1.55;;;1.00;;
57856;SDS011;43683;48.650;9.290;2023-03-31T17:42:46;1.38;;;1.00;;
57856;SDS011;43683;48.650;9.290;2023-03-31T17:45:12;2.70;;;1.10;;
57856;SDS011;43683;48.650;9.290;2023-03-31T17:47:38;2.10;;;1.17;;
57856;SDS011;43683;48.650;9.290;2023-03-31T17:50:04;1.15;;;1.05;;
57856;SDS011;43683;48.650;9.290;2023-03-31T17:52:30;2.58;;;1.23;;
57856;SDS011;43683;48.650;9.290;2023-03-31T17:54:55;2.03;;;1.02;;
57856;SDS011;43683;48.650;9.290;2023-03-31T17:57:21;1.10;;;0.98;;
57856;SDS011;43683;48.650;9.290;2023-03-31T17:59:47;1.60;;;1.20;;